PWSweather.com
Personal Weather Stations
Station Observations
METEOC500
Santo Antonio, FunchalPT 2020

Santo AntonioFunchalPT 2020

Lat: 32.678227, Lon: -16.945054

Elevation: 1669.94751

Station Type: WH Series

High Low Average
Temperature 68.9°F20.5°C 61.3°F16.3°C 64.4°F18.0°C
Dew Point 63.0°F17.2°C 53.8°F12.1°C 58.5°F14.7°C
Winds 8.7 mph 14.0 kmh Calm Calm 3.0 mph WSW4.8 kmh WSW
Wind Gusts 12.5 mph20.1 kmh -- 8.0 mph12.9 kmh
Humidity 89% 72% 81%
Pressure 30.15 in1021.0 mb 30.10 in1019.3 mb -
Precipitation 0.01 in0.3 mm - -
Hour Temp Dew Point Humidity Winds Wind Gusts Pressure Precip Precip Rate Daily Precip Total
12:02 AM 61.7°F16.5°C 54.9°F12.7°C 78% 6.3 mph N10.1 kmh N 7.6 mph12.2 kmh 30.14 in1020.7 mb 0.00 in0.0 mm 0.00 in0.0 mm 0.00 in0.0 mm
12:17 AM 61.5°F16.4°C 55.2°F12.9°C 80% 5.4 mph NNW8.7 kmh NNW 10.1 mph16.3 kmh 30.14 in1020.7 mb 0.00 in0.0 mm 0.00 in0.0 mm 0.00 in0.0 mm
12:32 AM 61.5°F16.4°C 55.6°F13.1°C 81% 5.4 mph NNW8.7 kmh NNW 7.6 mph12.2 kmh 30.15 in1021.0 mb 0.00 in0.0 mm 0.00 in0.0 mm 0.00 in0.0 mm
12:47 AM 61.5°F16.4°C 55.9°F13.3°C 82% 4.5 mph N7.2 kmh N 10.1 mph16.3 kmh 30.14 in1020.7 mb 0.00 in0.0 mm 0.00 in0.0 mm 0.00 in0.0 mm
01:03 AM 61.5°F16.4°C 55.6°F13.1°C 81% 6.3 mph NNW10.1 kmh NNW 10.1 mph16.3 kmh 30.14 in1020.7 mb 0.00 in0.0 mm 0.00 in0.0 mm 0.00 in0.0 mm
01:18 AM 61.7°F16.5°C 54.5°F12.5°C 77% 8.1 mph NNW13.0 kmh NNW 10.1 mph16.3 kmh 30.14 in1020.7 mb 0.00 in0.0 mm 0.00 in0.0 mm 0.00 in0.0 mm
01:33 AM 61.7°F16.5°C 54.5°F12.5°C 77% 7.2 mph N11.6 kmh N 10.1 mph16.3 kmh 30.13 in1020.3 mb 0.00 in0.0 mm 0.00 in0.0 mm 0.00 in0.0 mm
01:48 AM 61.5°F16.4°C 54.3°F12.4°C 77% 3.8 mph NNW6.1 kmh NNW 10.1 mph16.3 kmh 30.13 in1020.3 mb 0.00 in0.0 mm 0.00 in0.0 mm 0.00 in0.0 mm
02:03 AM 61.7°F16.5°C 53.8°F12.1°C 75% 5.6 mph NNW9.0 kmh NNW 12.5 mph20.1 kmh 30.13 in1020.3 mb 0.00 in0.0 mm 0.00 in0.0 mm 0.00 in0.0 mm
02:18 AM 61.9°F16.6°C 54.3°F12.4°C 76% 6.3 mph NNW10.1 kmh NNW 10.1 mph16.3 kmh 30.13 in1020.3 mb 0.00 in0.0 mm 0.00 in0.0 mm 0.00 in0.0 mm
02:33 AM 61.7°F16.5°C 54.9°F12.7°C 78% 5.4 mph NNW8.7 kmh NNW 7.6 mph12.2 kmh 30.12 in1020.0 mb 0.00 in0.0 mm 0.00 in0.0 mm 0.00 in0.0 mm
02:48 AM 61.9°F16.6°C 53.8°F12.1°C 75% 5.4 mph NNW8.7 kmh NNW 10.1 mph16.3 kmh 30.13 in1020.3 mb 0.00 in0.0 mm 0.00 in0.0 mm 0.00 in0.0 mm
03:03 AM 62.2°F16.8°C 53.8°F12.1°C 74% 2.2 mph NW3.5 kmh NW 7.6 mph12.2 kmh 30.13 in1020.3 mb 0.00 in0.0 mm 0.00 in0.0 mm 0.00 in0.0 mm
03:18 AM 62.6°F17.0°C 54.5°F12.5°C 75% 3.4 mph NNW5.5 kmh NNW 4.9 mph7.9 kmh 30.13 in1020.3 mb 0.00 in0.0 mm 0.00 in0.0 mm 0.00 in0.0 mm
03:33 AM 62.6°F17.0°C 54.1°F12.3°C 74% 4.9 mph NNW7.9 kmh NNW 7.6 mph12.2 kmh 30.12 in1020.0 mb 0.00 in0.0 mm 0.00 in0.0 mm 0.00 in0.0 mm
03:48 AM 62.8°F17.1°C 54.3°F12.4°C 74% 3.1 mph N5.0 kmh N 7.6 mph12.2 kmh 30.12 in1020.0 mb 0.00 in0.0 mm 0.00 in0.0 mm 0.00 in0.0 mm
04:03 AM 63.1°F17.3°C 54.7°F12.6°C 74% 3.8 mph NW6.1 kmh NW 7.6 mph12.2 kmh 30.12 in1020.0 mb 0.00 in0.0 mm 0.00 in0.0 mm 0.00 in0.0 mm
04:18 AM 63.1°F17.3°C 55.4°F13.0°C 76% 1.6 mph NW2.6 kmh NW 4.9 mph7.9 kmh 30.11 in1019.6 mb 0.00 in0.0 mm 0.00 in0.0 mm 0.00 in0.0 mm
04:33 AM 62.6°F17.0°C 55.6°F13.1°C 78% 1.6 mph NW2.6 kmh NW 7.6 mph12.2 kmh 30.11 in1019.6 mb 0.00 in0.0 mm 0.00 in0.0 mm 0.00 in0.0 mm
04:48 AM 62.1°F16.7°C 54.7°F12.6°C 77% 3.8 mph NNW6.1 kmh NNW 7.6 mph12.2 kmh 30.11 in1019.6 mb 0.00 in0.0 mm 0.00 in0.0 mm 0.00 in0.0 mm
05:03 AM 61.7°F16.5°C 54.5°F12.5°C 77% 4.5 mph NNW7.2 kmh NNW 10.1 mph16.3 kmh 30.11 in1019.6 mb 0.00 in0.0 mm 0.00 in0.0 mm 0.00 in0.0 mm
05:18 AM 61.5°F16.4°C 54.7°F12.6°C 78% 5.4 mph N8.7 kmh N 10.1 mph16.3 kmh 30.10 in1019.3 mb 0.00 in0.0 mm 0.00 in0.0 mm 0.00 in0.0 mm
05:33 AM 61.3°F16.3°C 54.1°F12.3°C 77% 3.4 mph NNW5.5 kmh NNW 7.6 mph12.2 kmh 30.10 in1019.3 mb 0.00 in0.0 mm 0.00 in0.0 mm 0.00 in0.0 mm
05:48 AM 61.5°F16.4°C 54.0°F12.2°C 76% 4.0 mph NW6.4 kmh NW 7.6 mph12.2 kmh 30.11 in1019.6 mb 0.00 in0.0 mm 0.00 in0.0 mm 0.00 in0.0 mm
06:03 AM 62.2°F16.8°C 54.1°F12.3°C 75% 2.5 mph NW4.0 kmh NW 7.6 mph12.2 kmh 30.11 in1019.6 mb 0.00 in0.0 mm 0.00 in0.0 mm 0.00 in0.0 mm
06:18 AM 62.8°F17.1°C 55.4°F13.0°C 77% 4.7 mph NW7.6 kmh NW 10.1 mph16.3 kmh 30.11 in1019.6 mb 0.00 in0.0 mm 0.00 in0.0 mm 0.00 in0.0 mm
06:33 AM 63.0°F17.2°C 55.6°F13.1°C 77% 4.5 mph N7.2 kmh N 7.6 mph12.2 kmh 30.11 in1019.6 mb 0.00 in0.0 mm 0.00 in0.0 mm 0.00 in0.0 mm
06:48 AM 63.0°F17.2°C 55.9°F13.3°C 78% 2.9 mph NNW4.7 kmh NNW 7.6 mph12.2 kmh 30.12 in1020.0 mb 0.00 in0.0 mm 0.00 in0.0 mm 0.00 in0.0 mm
07:03 AM 63.1°F17.3°C 55.8°F13.2°C 77% 1.8 mph NW2.9 kmh NW 7.6 mph12.2 kmh 30.12 in1020.0 mb 0.00 in0.0 mm 0.00 in0.0 mm 0.00 in0.0 mm
07:18 AM 63.3°F17.4°C 56.3°F13.5°C 78% 0.9 mph NNW1.4 kmh NNW 4.9 mph7.9 kmh 30.12 in1020.0 mb 0.00 in0.0 mm 0.00 in0.0 mm 0.00 in0.0 mm
07:33 AM 63.5°F17.5°C 56.5°F13.6°C 78% 3.1 mph NNW5.0 kmh NNW 4.9 mph7.9 kmh 30.12 in1020.0 mb 0.00 in0.0 mm 0.00 in0.0 mm 0.00 in0.0 mm
07:48 AM 63.9°F17.7°C 56.8°F13.8°C 78% 0.9 mph N1.4 kmh N 4.9 mph7.9 kmh 30.12 in1020.0 mb 0.00 in0.0 mm 0.00 in0.0 mm 0.00 in0.0 mm
08:03 AM 64.4°F18.0°C 58.5°F14.7°C 81% 1.3 mph N2.1 kmh N 2.5 mph4.0 kmh 30.12 in1020.0 mb 0.00 in0.0 mm 0.00 in0.0 mm 0.00 in0.0 mm
08:18 AM 64.4°F18.0°C 58.8°F14.9°C 82% 2.2 mph N3.5 kmh N 7.6 mph12.2 kmh 30.13 in1020.3 mb 0.00 in0.0 mm 0.00 in0.0 mm 0.00 in0.0 mm
08:33 AM 63.9°F17.7°C 59.0°F15.0°C 84% 4.7 mph NNW7.6 kmh NNW 7.6 mph12.2 kmh 30.14 in1020.7 mb 0.00 in0.0 mm 0.00 in0.0 mm 0.00 in0.0 mm
08:48 AM 63.5°F17.5°C 58.6°F14.8°C 84% 3.4 mph NW5.5 kmh NW 7.6 mph12.2 kmh 30.14 in1020.7 mb 0.00 in0.0 mm 0.00 in0.0 mm 0.00 in0.0 mm
09:03 AM 63.5°F17.5°C 58.8°F14.9°C 85% 2.9 mph N4.7 kmh N 7.6 mph12.2 kmh 30.14 in1020.7 mb 0.00 in0.0 mm 0.00 in0.0 mm 0.00 in0.0 mm
09:18 AM 63.7°F17.6°C 59.0°F15.0°C 85% 0.7 mph NNW1.1 kmh NNW 7.6 mph12.2 kmh 30.14 in1020.7 mb 0.00 in0.0 mm 0.00 in0.0 mm 0.00 in0.0 mm
09:33 AM 64.2°F17.9°C 58.6°F14.8°C 82% 1.8 mph NE2.9 kmh NE 4.9 mph7.9 kmh 30.13 in1020.3 mb 0.00 in0.0 mm 0.00 in0.0 mm 0.00 in0.0 mm
09:48 AM 65.5°F18.6°C 59.5°F15.3°C 81% Calm Calm 2.5 mph4.0 kmh 30.14 in1020.7 mb 0.00 in0.0 mm 0.00 in0.0 mm 0.00 in0.0 mm
10:03 AM 66.6°F19.2°C 60.3°F15.7°C 80% 0.7 mph SSE1.1 kmh SSE 4.9 mph7.9 kmh 30.15 in1021.0 mb 0.00 in0.0 mm 0.00 in0.0 mm 0.00 in0.0 mm
10:18 AM 67.1°F19.5°C 60.4°F15.8°C 79% 3.4 mph NNE5.5 kmh NNE 4.9 mph7.9 kmh 30.14 in1020.7 mb 0.00 in0.0 mm 0.00 in0.0 mm 0.00 in0.0 mm
10:33 AM 67.3°F19.6°C 59.5°F15.3°C 76% 8.7 mph N14.0 kmh N 12.5 mph20.1 kmh 30.14 in1020.7 mb 0.00 in0.0 mm 0.00 in0.0 mm 0.00 in0.0 mm
10:48 AM 67.8°F19.9°C 59.9°F15.5°C 76% 8.1 mph ESE13.0 kmh ESE 12.5 mph20.1 kmh 30.15 in1021.0 mb 0.00 in0.0 mm 0.00 in0.0 mm 0.00 in0.0 mm
11:03 AM 68.5°F20.3°C 59.2°F15.1°C 72% 2.9 mph S4.7 kmh S 12.5 mph20.1 kmh 30.15 in1021.0 mb 0.00 in0.0 mm 0.00 in0.0 mm 0.00 in0.0 mm
11:18 AM 68.7°F20.4°C 60.1°F15.6°C 74% 2.9 mph ESE4.7 kmh ESE 10.1 mph16.3 kmh 30.14 in1020.7 mb 0.00 in0.0 mm 0.00 in0.0 mm 0.00 in0.0 mm
11:33 AM 68.2°F20.1°C 59.5°F15.3°C 74% 1.3 mph SE2.1 kmh SE 12.5 mph20.1 kmh 30.14 in1020.7 mb 0.00 in0.0 mm 0.00 in0.0 mm 0.00 in0.0 mm
11:48 AM 67.6°F19.8°C 59.4°F15.2°C 75% 0.7 mph ESE1.1 kmh ESE 7.6 mph12.2 kmh 30.14 in1020.7 mb 0.00 in0.0 mm 0.00 in0.0 mm 0.00 in0.0 mm
12:03 PM 67.3°F19.6°C 60.3°F15.7°C 78% 1.8 mph E2.9 kmh E 10.1 mph16.3 kmh 30.15 in1021.0 mb 0.00 in0.0 mm 0.00 in0.0 mm 0.00 in0.0 mm
12:18 PM 66.7°F19.3°C 58.6°F14.8°C 75% 2.5 mph ESE4.0 kmh ESE 7.6 mph12.2 kmh 30.14 in1020.7 mb 0.00 in0.0 mm 0.00 in0.0 mm 0.00 in0.0 mm
12:33 PM 67.6°F19.8°C 59.0°F15.0°C 74% 4.9 mph E7.9 kmh E 7.6 mph12.2 kmh 30.14 in1020.7 mb 0.00 in0.0 mm 0.00 in0.0 mm 0.00 in0.0 mm
12:48 PM 68.9°F20.5°C 61.0°F16.1°C 76% 3.1 mph SSE5.0 kmh SSE 10.1 mph16.3 kmh 30.14 in1020.7 mb 0.00 in0.0 mm 0.00 in0.0 mm 0.00 in0.0 mm
01:04 PM 68.0°F20.0°C 62.2°F16.8°C 82% 3.8 mph SE6.1 kmh SE 10.1 mph16.3 kmh 30.14 in1020.7 mb 0.00 in0.0 mm 0.00 in0.0 mm 0.00 in0.0 mm
01:19 PM 66.7°F19.3°C 61.3°F16.3°C 83% 3.8 mph SSE6.1 kmh SSE 7.6 mph12.2 kmh 30.14 in1020.7 mb 0.00 in0.0 mm 0.00 in0.0 mm 0.00 in0.0 mm
01:34 PM 66.4°F19.1°C 61.7°F16.5°C 85% 2.9 mph S4.7 kmh S 7.6 mph12.2 kmh 30.14 in1020.7 mb 0.00 in0.0 mm 0.00 in0.0 mm 0.00 in0.0 mm
01:49 PM 66.7°F19.3°C 60.8°F16.0°C 81% Calm Calm 7.6 mph12.2 kmh 30.14 in1020.7 mb 0.00 in0.0 mm 0.00 in0.0 mm 0.00 in0.0 mm
02:04 PM 67.5°F19.7°C 60.8°F16.0°C 79% 2.2 mph E3.5 kmh E 10.1 mph16.3 kmh 30.13 in1020.3 mb 0.00 in0.0 mm 0.00 in0.0 mm 0.00 in0.0 mm
02:19 PM 68.5°F20.3°C 61.3°F16.3°C 78% 2.2 mph SE3.5 kmh SE 10.1 mph16.3 kmh 30.13 in1020.3 mb 0.00 in0.0 mm 0.00 in0.0 mm 0.00 in0.0 mm
02:34 PM 68.9°F20.5°C 62.4°F16.9°C 80% 3.4 mph SSE5.5 kmh SSE 10.1 mph16.3 kmh 30.12 in1020.0 mb 0.00 in0.0 mm 0.00 in0.0 mm 0.00 in0.0 mm
02:49 PM 68.0°F20.0°C 62.2°F16.8°C 82% 1.3 mph SSE2.1 kmh SSE 7.6 mph12.2 kmh 30.12 in1020.0 mb 0.00 in0.0 mm 0.00 in0.0 mm 0.00 in0.0 mm
03:04 PM 66.9°F19.4°C 63.0°F17.2°C 87% Calm Calm 7.6 mph12.2 kmh 30.12 in1020.0 mb 0.00 in0.0 mm 0.00 in0.0 mm 0.00 in0.0 mm
03:19 PM 65.7°F18.7°C 62.1°F16.7°C 88% 0.9 mph SE1.4 kmh SE 4.9 mph7.9 kmh 30.12 in1020.0 mb 0.01 in0.3 mm 0.04 in1.0 mm 0.01 in0.3 mm
03:34 PM 65.3°F18.5°C 61.7°F16.5°C 88% Calm Calm 2.5 mph4.0 kmh 30.11 in1019.6 mb 0.01 in0.3 mm 0.00 in0.0 mm 0.01 in0.3 mm
03:49 PM 65.5°F18.6°C 61.5°F16.4°C 87% 0.7 mph E1.1 kmh E 4.9 mph7.9 kmh 30.11 in1019.6 mb 0.01 in0.3 mm 0.00 in0.0 mm 0.01 in0.3 mm
04:04 PM 66.2°F19.0°C 61.2°F16.2°C 84% 1.3 mph S2.1 kmh S 10.1 mph16.3 kmh 30.11 in1019.6 mb 0.01 in0.3 mm 0.00 in0.0 mm 0.01 in0.3 mm
04:19 PM 67.5°F19.7°C 61.3°F16.3°C 81% 2.5 mph E4.0 kmh E 7.6 mph12.2 kmh 30.11 in1019.6 mb 0.00 in0.0 mm 0.00 in0.0 mm 0.01 in0.3 mm
04:34 PM 67.8°F19.9°C 62.1°F16.7°C 82% 1.3 mph SE2.1 kmh SE 7.6 mph12.2 kmh 30.11 in1019.6 mb 0.00 in0.0 mm 0.00 in0.0 mm 0.01 in0.3 mm
04:49 PM 67.5°F19.7°C 62.8°F17.1°C 85% Calm Calm 7.6 mph12.2 kmh 30.11 in1019.6 mb 0.00 in0.0 mm 0.00 in0.0 mm 0.01 in0.3 mm
05:04 PM 66.9°F19.4°C 62.6°F17.0°C 86% 4.0 mph S6.4 kmh S 10.1 mph16.3 kmh 30.11 in1019.6 mb 0.00 in0.0 mm 0.00 in0.0 mm 0.01 in0.3 mm
05:19 PM 66.4°F19.1°C 62.1°F16.7°C 86% 2.5 mph SW4.0 kmh SW 10.1 mph16.3 kmh 30.11 in1019.6 mb 0.00 in0.0 mm 0.00 in0.0 mm 0.01 in0.3 mm
05:34 PM 66.2°F19.0°C 62.6°F17.0°C 88% 6.0 mph SSW9.7 kmh SSW 7.6 mph12.2 kmh 30.10 in1019.3 mb 0.00 in0.0 mm 0.00 in0.0 mm 0.01 in0.3 mm
05:49 PM 65.7°F18.7°C 62.1°F16.7°C 88% Calm Calm 7.6 mph12.2 kmh 30.10 in1019.3 mb 0.00 in0.0 mm 0.00 in0.0 mm 0.01 in0.3 mm
06:05 PM 65.3°F18.5°C 62.1°F16.7°C 89% Calm Calm 4.9 mph7.9 kmh 30.11 in1019.6 mb 0.00 in0.0 mm 0.00 in0.0 mm 0.01 in0.3 mm
06:20 PM 65.3°F18.5°C 62.1°F16.7°C 89% Calm Calm 4.9 mph7.9 kmh 30.10 in1019.3 mb 0.00 in0.0 mm 0.00 in0.0 mm 0.01 in0.3 mm
06:35 PM 65.3°F18.5°C 61.7°F16.5°C 88% Calm Calm -- 30.11 in1019.6 mb 0.00 in0.0 mm 0.00 in0.0 mm 0.01 in0.3 mm
06:50 PM 65.5°F18.6°C 61.9°F16.6°C 88% 2.2 mph SE3.5 kmh SE 2.5 mph4.0 kmh 30.11 in1019.6 mb 0.00 in0.0 mm 0.00 in0.0 mm 0.01 in0.3 mm
07:05 PM 65.5°F18.6°C 61.9°F16.6°C 88% Calm Calm 4.9 mph7.9 kmh 30.11 in1019.6 mb 0.00 in0.0 mm 0.00 in0.0 mm 0.01 in0.3 mm
07:20 PM 65.3°F18.5°C 61.7°F16.5°C 88% Calm Calm 2.5 mph4.0 kmh 30.12 in1020.0 mb 0.00 in0.0 mm 0.00 in0.0 mm 0.01 in0.3 mm
07:35 PM 65.1°F18.4°C 61.5°F16.4°C 88% Calm Calm -- 30.11 in1019.6 mb 0.00 in0.0 mm 0.00 in0.0 mm 0.01 in0.3 mm
07:50 PM 64.9°F18.3°C 61.7°F16.5°C 89% Calm Calm 2.5 mph4.0 kmh 30.11 in1019.6 mb 0.00 in0.0 mm 0.00 in0.0 mm 0.01 in0.3 mm
08:05 PM 64.6°F18.1°C 61.3°F16.3°C 89% 0.9 mph N1.4 kmh N 4.9 mph7.9 kmh 30.12 in1020.0 mb 0.00 in0.0 mm 0.00 in0.0 mm 0.01 in0.3 mm
08:20 PM 63.9°F17.7°C 59.9°F15.5°C 87% 4.0 mph NNW6.4 kmh NNW 4.9 mph7.9 kmh 30.12 in1020.0 mb 0.00 in0.0 mm 0.00 in0.0 mm 0.01 in0.3 mm
08:35 PM 63.5°F17.5°C 59.2°F15.1°C 86% 5.4 mph N8.7 kmh N 7.6 mph12.2 kmh 30.13 in1020.3 mb 0.00 in0.0 mm 0.00 in0.0 mm 0.01 in0.3 mm
08:50 PM 63.1°F17.3°C 58.8°F14.9°C 86% 4.9 mph NW7.9 kmh NW 10.1 mph16.3 kmh 30.13 in1020.3 mb 0.00 in0.0 mm 0.00 in0.0 mm 0.01 in0.3 mm
09:05 PM 63.1°F17.3°C 58.8°F14.9°C 86% 8.1 mph NNW13.0 kmh NNW 10.1 mph16.3 kmh 30.13 in1020.3 mb 0.00 in0.0 mm 0.00 in0.0 mm 0.01 in0.3 mm
09:20 PM 62.8°F17.1°C 58.3°F14.6°C 85% 6.0 mph N9.7 kmh N 12.5 mph20.1 kmh 30.14 in1020.7 mb 0.00 in0.0 mm 0.00 in0.0 mm 0.01 in0.3 mm
09:36 PM 62.6°F17.0°C 57.7°F14.3°C 84% 6.9 mph NNW11.1 kmh NNW 10.1 mph16.3 kmh 30.14 in1020.7 mb 0.00 in0.0 mm 0.00 in0.0 mm 0.01 in0.3 mm
09:51 PM 62.8°F17.1°C 58.5°F14.7°C 86% 6.5 mph NNW10.5 kmh NNW 10.1 mph16.3 kmh 30.14 in1020.7 mb 0.00 in0.0 mm 0.00 in0.0 mm 0.01 in0.3 mm
10:06 PM 62.4°F16.9°C 57.9°F14.4°C 85% 8.1 mph NNW13.0 kmh NNW 10.1 mph16.3 kmh 30.14 in1020.7 mb 0.00 in0.0 mm 0.00 in0.0 mm 0.01 in0.3 mm
10:21 PM 62.2°F16.8°C 57.7°F14.3°C 85% 7.6 mph NNW12.2 kmh NNW 10.1 mph16.3 kmh 30.14 in1020.7 mb 0.00 in0.0 mm 0.00 in0.0 mm 0.01 in0.3 mm
10:36 PM 62.2°F16.8°C 57.9°F14.4°C 86% 4.7 mph NNW7.6 kmh NNW 10.1 mph16.3 kmh 30.15 in1021.0 mb 0.00 in0.0 mm 0.00 in0.0 mm 0.01 in0.3 mm
10:51 PM 62.4°F16.9°C 57.9°F14.4°C 85% 4.7 mph NNW7.6 kmh NNW 10.1 mph16.3 kmh 30.15 in1021.0 mb 0.00 in0.0 mm 0.00 in0.0 mm 0.01 in0.3 mm
11:06 PM 62.8°F17.1°C 58.3°F14.6°C 85% 6.5 mph NNW10.5 kmh NNW 10.1 mph16.3 kmh 30.14 in1020.7 mb 0.00 in0.0 mm 0.00 in0.0 mm 0.01 in0.3 mm
11:21 PM 63.0°F17.2°C 58.5°F14.7°C 85% 5.4 mph N8.7 kmh N 7.6 mph12.2 kmh 30.15 in1021.0 mb 0.00 in0.0 mm 0.00 in0.0 mm 0.01 in0.3 mm
11:36 PM 62.6°F17.0°C 58.3°F14.6°C 86% 4.7 mph N7.6 kmh N 7.6 mph12.2 kmh 30.15 in1021.0 mb 0.00 in0.0 mm 0.00 in0.0 mm 0.01 in0.3 mm
11:51 PM 62.4°F16.9°C 57.9°F14.4°C 85% 5.4 mph NNW8.7 kmh NNW 10.1 mph16.3 kmh 30.14 in1020.7 mb 0.00 in0.0 mm 0.00 in0.0 mm 0.01 in0.3 mm